Time;durP1;ratioP1;P1;durP2;ratioP2;P2;SDS_P1;SDS_P2;PMS_P1;PMS_P2;Temp;Humidity;BMP_temperature;BMP_pressure;BME280_temperature;BME280_humidity;BME280_pressure;Samples;Min_cycle;Max_cycle;Signal;HPM_P1;HPM_P2
2023/03/29 00:00:39;;;;;;;;;;;;;;;5.59;68.18;100253.09;4988101;28;5267;-77
2023/03/29 00:03:32;;;;;;;;;;;;;;;5.59;67.85;100237.06;4988486;28;5006;-77
2023/03/29 00:06:24;;;;;;;;;;;;;;;5.57;67.92;100232.94;4987941;28;4960;-76
2023/03/29 00:09:17;;;;;;;;;;;;;;;5.55;68.00;100230.44;4986771;28;4818;-77
2023/03/29 00:12:09;;;;;;;;;;;;;;;5.55;67.78;100229.63;4990130;28;5542;-75
2023/03/29 00:15:01;;;;;;;;;;;;;;;5.55;67.93;100229.63;4989336;28;5480;-77
2023/03/29 00:17:53;;;;;;;;;;;;;;;5.55;67.80;100224.28;4988861;28;5197;-78
2023/03/29 00:20:45;;;;;;;;;;;;;;;5.54;67.85;100223.47;4988369;28;4997;-76
2023/03/29 00:23:37;;;;;;;;;;;;;;;5.54;67.79;100220.78;4988028;28;5265;-75
2023/03/29 00:26:29;;;;;;;;;;;;;;;5.54;67.85;100219.97;4989046;28;5037;-77
2023/03/29 00:29:21;;;;;;;;;;;;;;;5.52;67.59;100220.16;4985323;28;4952;-76
2023/03/29 00:32:13;;;;;;;;;;;;;;;5.51;67.77;100217.69;4986015;28;4838;-77
2023/03/29 00:35:06;;;;;;;;;;;;;;;5.49;67.97;100209.84;4988448;28;5008;-78
2023/03/29 00:38:02;;;;;;;;;;;;;;;5.46;67.72;100205.72;4986658;28;4918;-74
2023/03/29 00:40:53;;;;;;;;;;;;;;;5.45;67.93;100203.25;4990607;28;4976;-75
2023/03/29 00:43:44;;;;;;;;;;;;;;;5.44;67.89;100202.44;4988783;28;4917;-77
2023/03/29 00:46:36;;;;;;;;;;;;;;;5.43;67.89;100198.09;4987805;28;5568;-76
2023/03/29 00:49:28;;;;;;;;;;;;;;;5.43;67.87;100199.94;4987588;28;4905;-77
2023/03/29 00:52:20;;;;;;;;;;;;;;;5.41;67.83;100189.47;4988467;28;4929;-76
2023/03/29 00:55:12;;;;;;;;;;;;;;;5.39;67.80;100190.69;4977642;28;4946;-78
2023/03/29 00:58:04;;;;;;;;;;;;;;;5.41;67.86;100193.97;4988275;28;4966;-77
2023/03/29 01:00:56;;;;;;;;;;;;;;;5.40;67.77;100185.13;4987632;28;4878;-76
2023/03/29 01:03:48;;;;;;;;;;;;;;;5.38;67.79;100183.66;4989436;28;5020;-76
2023/03/29 01:06:42;;;;;;;;;;;;;;;5.36;67.93;100183.88;4989164;28;5436;-76
2023/03/29 01:09:33;;;;;;;;;;;;;;;5.35;67.82;100184.06;4987088;28;5075;-76
2023/03/29 01:12:25;;;;;;;;;;;;;;;5.36;67.72;100185.75;4985954;28;4981;-76
2023/03/29 01:15:17;;;;;;;;;;;;;;;5.34;67.90;100177.91;4985708;28;5079;-77
2023/03/29 01:18:09;;;;;;;;;;;;;;;5.34;67.79;100188.59;4987042;28;5732;-77
2023/03/29 01:21:03;;;;;;;;;;;;;;;5.32;67.80;100187.13;4987541;28;5191;-78
2023/03/29 01:23:57;;;;;;;;;;;;;;;5.31;67.84;100188.97;4985233;28;4929;-77
2023/03/29 01:26:49;;;;;;;;;;;;;;;5.31;67.71;100194.31;4985776;28;5094;-79
2023/03/29 01:29:41;;;;;;;;;;;;;;;5.33;67.87;100192.28;4988301;28;5098;-77
2023/03/29 01:32:34;;;;;;;;;;;;;;;5.30;67.89;100191.84;4989402;28;5042;-77
2023/03/29 01:35:27;;;;;;;;;;;;;;;5.28;67.74;100192.03;4988279;28;5680;-78
2023/03/29 01:38:18;;;;;;;;;;;;;;;5.27;67.81;100193.06;4986058;28;5073;-76
2023/03/29 01:41:10;;;;;;;;;;;;;;;5.25;67.90;100192.41;4986041;28;4988;-76
2023/03/29 01:44:02;;;;;;;;;;;;;;;5.24;67.77;100190.78;4986625;28;4833;-79
2023/03/29 01:46:53;;;;;;;;;;;;;;;5.23;68.04;100192.63;4984757;28;5595;-77
2023/03/29 01:49:45;;;;;;;;;;;;;;;5.23;67.80;100197.13;4987182;28;5034;-76
2023/03/29 01:52:37;;;;;;;;;;;;;;;5.24;67.88;100188.13;4987822;28;5024;-79
2023/03/29 01:55:29;;;;;;;;;;;;;;;5.21;67.88;100183.16;4984355;28;5341;-76
2023/03/29 01:58:21;;;;;;;;;;;;;;;5.21;67.80;100183.97;4986378;28;4925;-76
2023/03/29 02:01:16;;;;;;;;;;;;;;;5.21;67.85;100183.16;4987238;28;5103;-76
2023/03/29 02:04:08;;;;;;;;;;;;;;;5.20;67.84;100184.16;4987895;28;5769;-80
2023/03/29 02:06:59;;;;;;;;;;;;;;;5.19;67.85;100186.00;4987094;28;5267;-78
2023/03/29 02:09:52;;;;;;;;;;;;;;;5.18;67.73;100180.88;4984344;28;5019;-80
2023/03/29 02:12:44;;;;;;;;;;;;;;;5.16;67.87;100177.56;4985957;28;5742;-77
2023/03/29 02:15:36;;;;;;;;;;;;;;;5.16;67.91;100180.25;4984691;28;4770;-76
2023/03/29 02:18:27;;;;;;;;;;;;;;;5.13;67.97;100165.44;4985702;28;4924;-75
2023/03/29 02:21:20;;;;;;;;;;;;;;;5.14;67.95;100168.91;4984842;28;4968;-77
2023/03/29 02:24:12;;;;;;;;;;;;;;;5.14;67.87;100172.41;4984715;28;5267;-77
2023/03/29 02:27:03;;;;;;;;;;;;;;;5.12;67.71;100169.13;4987414;28;4973;-77
2023/03/29 02:29:56;;;;;;;;;;;;;;;5.11;67.92;100172.78;4987779;28;4979;-77
2023/03/29 02:32:48;;;;;;;;;;;;;;;5.10;67.78;100173.00;4986700;28;4984;-76
2023/03/29 02:35:40;;;;;;;;;;;;;;;5.10;67.91;100168.47;4985913;28;5598;-76
2023/03/29 02:38:31;;;;;;;;;;;;;;;5.09;67.84;100168.66;4986377;28;4889;-76
2023/03/29 02:41:24;;;;;;;;;;;;;;;5.08;67.97;100169.69;4985247;28;4901;-79
2023/03/29 02:44:15;;;;;;;;;;;;;;;5.06;67.89;100161.91;4985662;28;5487;-79
2023/03/29 02:47:06;;;;;;;;;;;;;;;5.05;67.84;100164.75;4983545;28;4913;-77
2023/03/29 02:49:58;;;;;;;;;;;;;;;5.03;67.98;100162.28;4985880;28;5232;-76
2023/03/29 02:52:51;;;;;;;;;;;;;;;5.01;67.85;100162.47;4989026;28;5473;-79
2023/03/29 02:55:44;;;;;;;;;;;;;;;5.05;67.92;100156.72;4988526;28;5610;-78
2023/03/29 02:58:37;;;;;;;;;;;;;;;5.03;67.84;100158.75;4989454;28;4881;-78
2023/03/29 03:01:28;;;;;;;;;;;;;;;5.01;67.95;100154.44;4987856;28;4897;-77
2023/03/29 03:04:20;;;;;;;;;;;;;;;4.99;67.98;100148.47;4988763;28;5517;-77
2023/03/29 03:07:12;;;;;;;;;;;;;;;4.99;68.17;100158.31;4990045;28;4980;-79
2023/03/29 03:10:04;;;;;;;;;;;;;;;4.98;67.81;100162.84;4988097;28;4992;-79
2023/03/29 03:12:56;;;;;;;;;;;;;;;4.98;67.89;100159.34;4991428;28;5128;-78
2023/03/29 03:15:49;;;;;;;;;;;;;;;4.97;67.95;100158.53;4986436;28;4952;-77
2023/03/29 03:18:40;;;;;;;;;;;;;;;4.97;67.81;100165.69;4990145;28;4992;-76
2023/03/29 03:21:33;;;;;;;;;;;;;;;4.94;68.00;100169.59;4991165;28;4972;-77
2023/03/29 03:24:26;;;;;;;;;;;;;;;4.93;67.91;100159.09;4991132;28;4914;-76
2023/03/29 03:27:18;;;;;;;;;;;;;;;4.93;67.78;100159.91;4990493;28;5133;-77
2023/03/29 03:30:10;;;;;;;;;;;;;;;4.91;67.95;100161.13;4986095;28;5122;-77
2023/03/29 03:33:01;;;;;;;;;;;;;;;4.91;67.97;100169.97;4989156;28;4933;-78
2023/03/29 03:35:55;;;;;;;;;;;;;;;4.89;67.93;100165.84;4989553;28;4949;-80
2023/03/29 03:38:49;;;;;;;;;;;;;;;4.89;68.15;100168.53;4988248;28;4973;-79
2023/03/29 03:41:40;;;;;;;;;;;;;;;4.89;67.77;100169.34;4983234;28;5009;-76
2023/03/29 03:44:31;;;;;;;;;;;;;;;4.89;67.84;100165.84;4986872;28;5017;-80
2023/03/29 03:47:23;;;;;;;;;;;;;;;4.89;67.82;100165.84;4986217;28;5088;-77
2023/03/29 03:50:15;;;;;;;;;;;;;;;4.87;67.81;100170.53;4989916;28;5655;-79
2023/03/29 03:53:08;;;;;;;;;;;;;;;4.85;67.96;100175.25;4989792;28;5148;-78
2023/03/29 03:56:01;;;;;;;;;;;;;;;4.86;67.59;100174.25;4991246;28;5072;-76
2023/03/29 03:58:52;;;;;;;;;;;;;;;4.83;67.91;100171.97;4983663;28;4928;-80
2023/03/29 04:01:44;;;;;;;;;;;;;;;4.81;68.05;100182.81;4971312;28;4736;-78
2023/03/29 04:04:36;;;;;;;;;;;;;;;4.85;67.86;100177.91;4979880;28;4602;-79
2023/03/29 04:07:29;;;;;;;;;;;;;;;4.82;68.04;100181.78;4988289;28;4945;-80
2023/03/29 04:10:20;;;;;;;;;;;;;;;4.81;67.86;100179.31;4987608;28;4949;-80
2023/03/29 04:13:11;;;;;;;;;;;;;;;4.79;67.82;100182.16;4989096;28;5562;-82
2023/03/29 04:16:03;;;;;;;;;;;;;;;4.78;68.00;100184.00;4983506;28;5067;-78
2023/03/29 04:18:55;;;;;;;;;;;;;;;4.78;67.84;100178.66;4981313;28;4879;-76
2023/03/29 04:21:50;;;;;;;;;;;;;;;4.77;67.98;100179.69;4985417;28;4906;-78
2023/03/29 04:24:41;;;;;;;;;;;;;;;4.76;67.98;100180.72;4987098;28;5300;-78
2023/03/29 04:27:32;;;;;;;;;;;;;;;4.77;67.86;100184.22;4989597;28;4926;-79
2023/03/29 04:30:24;;;;;;;;;;;;;;;4.76;67.89;100187.88;4986865;28;5253;-79
2023/03/29 04:33:16;;;;;;;;;;;;;;;4.75;67.73;100188.91;4988654;28;5061;-79
2023/03/29 04:36:09;;;;;;;;;;;;;;;4.75;67.88;100187.06;4987801;28;5280;-78
2023/03/29 04:39:03;;;;;;;;;;;;;;;4.76;67.83;100187.88;4980261;28;4865;-78
2023/03/29 04:41:54;;;;;;;;;;;;;;;4.75;67.78;100183.56;4967048;28;4726;-79
2023/03/29 04:44:46;;;;;;;;;;;;;;;4.73;67.74;100183.75;4968808;28;5013;-79
2023/03/29 04:47:38;;;;;;;;;;;;;;;4.74;67.70;100188.09;4972454;28;4696;-77
2023/03/29 04:50:31;;;;;;;;;;;;;;;4.75;67.91;100191.56;4965332;28;4690;-80
2023/03/29 04:53:22;;;;;;;;;;;;;;;4.73;67.71;100188.25;4964090;28;4583;-79
2023/03/29 04:56:13;;;;;;;;;;;;;;;4.75;67.66;100188.91;4967192;28;5029;-78
2023/03/29 04:59:06;;;;;;;;;;;;;;;4.75;67.70;100199.56;4969463;28;4705;-79
2023/03/29 05:01:57;;;;;;;;;;;;;;;4.76;67.62;100199.41;4972690;28;4643;-76
2023/03/29 05:04:49;;;;;;;;;;;;;;;4.73;67.54;100201.59;4966581;28;4943;-76
2023/03/29 05:07:40;;;;;;;;;;;;;;;4.73;67.56;100199.75;4969054;28;4690;-80
2023/03/29 05:10:31;;;;;;;;;;;;;;;4.75;67.54;100203.06;4970111;28;5099;-79
2023/03/29 05:13:23;;;;;;;;;;;;;;;4.73;67.79;100205.09;4969148;28;4763;-79
2023/03/29 05:16:15;;;;;;;;;;;;;;;4.74;67.53;100213.94;4971496;28;4760;-78
2023/03/29 05:19:08;;;;;;;;;;;;;;;4.75;67.47;100203.06;4975591;28;5031;-78
2023/03/29 05:21:59;;;;;;;;;;;;;;;4.74;67.42;100203.28;4965037;28;4688;-77
2023/03/29 05:24:51;;;;;;;;;;;;;;;4.75;67.56;100203.06;4970920;28;4595;-76
2023/03/29 05:27:44;;;;;;;;;;;;;;;4.73;67.70;100207.75;4972341;28;4677;-78
2023/03/29 05:30:35;;;;;;;;;;;;;;;4.75;67.42;100211.06;4965152;28;4672;-75
2023/03/29 05:33:26;;;;;;;;;;;;;;;4.76;67.51;100215.41;4966622;28;4842;-78
2023/03/29 05:36:18;;;;;;;;;;;;;;;4.76;67.39;100217.22;4976638;28;4740;-80
2023/03/29 05:39:10;;;;;;;;;;;;;;;4.76;67.52;100212.75;4986075;28;4871;-79
2023/03/29 05:42:03;;;;;;;;;;;;;;;4.75;67.25;100212.91;4985572;28;4916;-79
2023/03/29 05:44:54;;;;;;;;;;;;;;;4.75;67.15;100223.59;4985490;28;5032;-80
2023/03/29 05:47:46;;;;;;;;;;;;;;;4.76;67.16;100227.91;4985478;28;5068;-77
2023/03/29 05:50:38;;;;;;;;;;;;;;;4.77;67.39;100221.56;4984365;28;5138;-76
2023/03/29 05:53:31;;;;;;;;;;;;;;;4.77;67.30;100225.06;4986837;28;4980;-80
2023/03/29 05:56:23;;;;;;;;;;;;;;;4.76;67.50;100219.91;4975993;28;4802;-78
2023/03/29 05:59:16;;;;;;;;;;;;;;;4.77;67.12;100237.56;4983295;28;4885;-80
2023/03/29 06:02:08;;;;;;;;;;;;;;;4.79;66.90;100230.19;4986141;28;5143;-78
2023/03/29 06:04:59;;;;;;;;;;;;;;;4.79;67.21;100238.19;4987617;28;4678;-77
2023/03/29 06:07:51;;;;;;;;;;;;;;;4.78;67.11;100240.03;4984528;28;5186;-79
2023/03/29 06:10:44;;;;;;;;;;;;;;;4.80;67.13;100245.19;4985971;28;4985;-74
2023/03/29 06:13:36;;;;;;;;;;;;;;;4.78;67.11;100245.38;4985484;28;5119;-75
2023/03/29 06:16:27;;;;;;;;;;;;;;;4.79;67.16;100248.88;4983324;28;5066;-75
2023/03/29 06:19:19;;;;;;;;;;;;;;;4.80;67.12;100249.72;4986605;28;5108;-78
2023/03/29 06:22:10;;;;;;;;;;;;;;;4.81;67.03;100254.84;4987201;28;5024;-76
2023/03/29 06:25:03;;;;;;;;;;;;;;;4.80;67.22;100260.41;4987438;28;5076;-77
2023/03/29 06:27:54;;;;;;;;;;;;;;;4.79;67.14;100251.53;4974313;28;4862;-77
2023/03/29 06:30:46;;;;;;;;;;;;;;;4.83;66.97;100252.00;4985229;28;5116;-77
2023/03/29 06:33:39;;;;;;;;;;;;;;;4.80;66.87;100247.88;4991505;28;5083;-77
2023/03/29 06:36:31;;;;;;;;;;;;;;;4.81;67.12;100259.38;4991215;28;5009;-76
2023/03/29 06:39:24;;;;;;;;;;;;;;;4.80;67.01;100263.88;4989243;28;4973;-76
2023/03/29 06:42:15;;;;;;;;;;;;;;;4.80;67.01;100263.06;4988066;28;5084;-76
2023/03/29 06:45:07;;;;;;;;;;;;;;;4.78;67.08;100260.56;4989369;28;5024;-80
2023/03/29 06:47:59;;;;;;;;;;;;;;;4.80;67.25;100273.72;4990754;28;5247;-78
2023/03/29 06:50:53;;;;;;;;;;;;;;;4.80;67.17;100276.41;4992746;28;5091;-77
2023/03/29 06:53:45;;;;;;;;;;;;;;;4.80;67.05;100277.22;4988863;28;5055;-77
2023/03/29 06:56:36;;;;;;;;;;;;;;;4.82;66.99;100285.03;4973355;28;4544;-79
2023/03/29 06:59:29;;;;;;;;;;;;;;;4.82;67.10;100291.19;4969726;28;4869;-79
2023/03/29 07:02:21;;;;;;;;;;;;;;;4.78;66.86;100289.91;4973185;28;4535;-79
2023/03/29 07:05:12;;;;;;;;;;;;;;;4.77;67.10;100296.28;4977833;28;4507;-76
2023/03/29 07:08:12;;;;;;;;;;;;;;;4.78;66.92;100304.06;4977545;28;4599;-76
2023/03/29 07:11:04;;;;;;;;;;;;;;;4.78;66.99;100296.06;4976233;28;4394;-77
2023/03/29 07:13:56;;;;;;;;;;;;;;;4.77;67.12;100299.78;4973498;28;4687;-77
2023/03/29 07:16:50;;;;;;;;;;;;;;;4.81;67.12;100307.41;4979059;28;3913;-78
2023/03/29 07:19:42;;;;;;;;;;;;;;;4.81;66.97;100312.72;4990612;28;4921;-79
2023/03/29 07:22:34;;;;;;;;;;;;;;;4.80;67.12;100311.09;4989170;28;5068;-78
2023/03/29 07:25:26;;;;;;;;;;;;;;;4.79;66.99;100315.56;4980964;28;4997;-77
2023/03/29 07:28:17;;;;;;;;;;;;;;;4.77;67.15;100318.44;4978722;28;4448;-76
2023/03/29 07:31:09;;;;;;;;;;;;;;;4.76;67.06;100319.47;4983956;28;4694;-79
2023/03/29 07:34:05;;;;;;;;;;;;;;;4.78;66.84;100321.94;4987735;28;4718;-78
2023/03/29 07:36:58;;;;;;;;;;;;;;;4.76;66.94;100329.28;4989708;28;4930;-78
2023/03/29 07:39:49;;;;;;;;;;;;;;;4.74;67.09;100324.16;4990136;28;5004;-80
2023/03/29 07:42:41;;;;;;;;;;;;;;;4.78;66.92;100335.28;4990483;28;4965;-79
2023/03/29 07:45:32;;;;;;;;;;;;;;;4.77;66.87;100336.31;4988604;28;4811;-79
2023/03/29 07:48:24;;;;;;;;;;;;;;;4.76;66.90;100335.47;4987658;28;4952;-79
2023/03/29 07:51:16;;;;;;;;;;;;;;;4.75;66.94;100344.47;4988446;28;4937;-80
2023/03/29 07:54:07;;;;;;;;;;;;;;;4.75;67.07;100351.66;4987326;28;4784;-80
2023/03/29 07:56:58;;;;;;;;;;;;;;;4.74;67.06;100353.50;4985301;28;4881;-79
2023/03/29 07:59:50;;;;;;;;;;;;;;;4.75;67.05;100349.00;4986693;28;4868;-79
2023/03/29 08:02:42;;;;;;;;;;;;;;;4.73;66.90;100359.84;4987131;28;5079;-79
2023/03/29 08:05:35;;;;;;;;;;;;;;;4.71;67.17;100356.56;4988048;28;5171;-80
2023/03/29 08:08:26;;;;;;;;;;;;;;;4.74;67.10;100358.03;4970045;28;4286;-78
2023/03/29 08:11:18;;;;;;;;;;;;;;;4.72;67.11;100358.19;4980479;28;4519;-78
2023/03/29 08:14:10;;;;;;;;;;;;;;;4.71;67.14;100361.88;4984657;28;4822;-78
2023/03/29 08:17:02;;;;;;;;;;;;;;;4.73;66.95;100369.69;4986545;28;5209;-76
2023/03/29 08:19:54;;;;;;;;;;;;;;;4.71;67.16;100369.88;4989108;28;4757;-77
2023/03/29 08:22:47;;;;;;;;;;;;;;;4.73;67.08;100373.19;4986807;28;4865;-78
2023/03/29 08:25:38;;;;;;;;;;;;;;;4.72;67.01;100373.38;4988085;28;4647;-81
2023/03/29 08:28:31;;;;;;;;;;;;;;;4.72;66.94;100371.53;4987341;28;5015;-79
2023/03/29 08:31:22;;;;;;;;;;;;;;;4.70;67.05;100364.72;4986603;28;5020;-80
2023/03/29 08:34:13;;;;;;;;;;;;;;;4.72;67.44;100373.38;4987950;28;5073;-79
2023/03/29 08:37:05;;;;;;;;;;;;;;;4.71;66.98;100369.06;4988002;28;4969;-79
2023/03/29 08:39:57;;;;;;;;;;;;;;;4.71;66.94;100377.88;4988432;28;4993;-81
2023/03/29 08:42:49;;;;;;;;;;;;;;;4.74;67.20;100379.38;4989842;28;4983;-79
2023/03/29 08:45:41;;;;;;;;;;;;;;;4.72;67.08;100384.06;4988172;28;5044;-78
2023/03/29 08:48:33;;;;;;;;;;;;;;;4.70;67.04;100381.56;4988294;28;4977;-79
2023/03/29 08:51:25;;;;;;;;;;;;;;;4.72;67.03;100384.88;4980528;28;4848;-79
2023/03/29 08:54:16;;;;;;;;;;;;;;;4.72;66.72;100386.72;4987193;28;4957;-79
2023/03/29 08:57:09;;;;;;;;;;;;;;;4.69;67.07;100389.75;4966984;28;4853;-79
2023/03/29 09:00:01;;;;;;;;;;;;;;;4.70;67.25;100402.06;4972422;28;4612;-79
2023/03/29 09:02:53;;;;;;;;;;;;;;;4.70;67.03;100388.72;4986252;28;4768;-79
2023/03/29 09:05:45;;;;;;;;;;;;;;;4.71;66.86;100396.56;4988122;28;4792;-79
2023/03/29 09:08:36;;;;;;;;;;;;;;;4.74;66.92;100403.38;4981843;28;4987;-78
2023/03/29 09:11:27;;;;;;;;;;;;;;;4.70;67.07;100405.56;4977528;28;4847;-79
2023/03/29 09:14:19;;;;;;;;;;;;;;;4.71;67.09;100409.09;4986074;28;4996;-79
2023/03/29 09:17:11;;;;;;;;;;;;;;;4.71;67.03;100406.41;4988375;28;4915;-80
2023/03/29 09:20:04;;;;;;;;;;;;;;;4.73;67.06;100412.38;4983836;28;5032;-80
2023/03/29 09:22:56;;;;;;;;;;;;;;;4.71;66.92;100412.56;4984753;28;4750;-79
2023/03/29 09:25:49;;;;;;;;;;;;;;;4.71;67.18;100411.75;4978695;28;5019;-78
2023/03/29 09:28:40;;;;;;;;;;;;;;;4.73;67.00;100417.72;4983548;28;4875;-78
2023/03/29 09:31:31;;;;;;;;;;;;;;;4.70;66.98;100415.41;4986287;28;4562;-79
2023/03/29 09:34:23;;;;;;;;;;;;;;;4.73;66.93;100421.19;4986852;28;4940;-80
2023/03/29 09:37:15;;;;;;;;;;;;;;;4.73;66.99;100415.03;4985812;28;4815;-79
2023/03/29 09:40:07;;;;;;;;;;;;;;;4.71;66.98;100417.91;4986000;28;4963;-79
2023/03/29 09:42:59;;;;;;;;;;;;;;;4.70;67.04;100421.56;4987703;28;5075;-79
2023/03/29 09:45:51;;;;;;;;;;;;;;;4.72;66.97;100424.06;4974989;28;5024;-78
2023/03/29 09:48:43;;;;;;;;;;;;;;;4.72;67.01;100432.06;4980121;28;5005;-80
2023/03/29 09:51:35;;;;;;;;;;;;;;;4.73;67.00;100441.72;4979098;28;4620;-77
2023/03/29 09:54:28;;;;;;;;;;;;;;;4.71;67.07;100433.09;4987180;28;5088;-79
2023/03/29 09:57:19;;;;;;;;;;;;;;;4.70;66.94;100429.56;4978217;28;4876;-77
2023/03/29 10:00:13;;;;;;;;;;;;;;;4.69;67.05;100433.28;4975207;28;4601;-78
2023/03/29 10:03:04;;;;;;;;;;;;;;;4.70;67.12;100429.56;4974306;28;4682;-79
2023/03/29 10:05:57;;;;;;;;;;;;;;;4.69;66.93;100430.59;4976573;28;4745;-80
2023/03/29 10:08:49;;;;;;;;;;;;;;;4.72;66.94;100438.25;4984863;28;5132;-77
2023/03/29 10:11:42;;;;;;;;;;;;;;;4.71;67.06;100436.59;4985845;28;4887;-79
2023/03/29 10:14:33;;;;;;;;;;;;;;;4.74;67.03;100440.72;4988052;28;5066;-78
2023/03/29 10:17:26;;;;;;;;;;;;;;;4.72;66.92;100440.91;4988799;28;5096;-79
2023/03/29 10:20:18;;;;;;;;;;;;;;;4.71;67.02;100435.78;4987293;28;5123;-79
2023/03/29 10:23:11;;;;;;;;;;;;;;;4.71;67.13;100441.94;4986238;28;4965;-78
2023/03/29 10:26:04;;;;;;;;;;;;;;;4.73;67.00;100441.72;4987347;28;5116;-76
2023/03/29 10:28:59;;;;;;;;;;;;;;;4.73;67.00;100439.06;4985184;28;5027;-76
2023/03/29 10:31:50;;;;;;;;;;;;;;;4.72;67.02;100440.91;4986878;28;4810;-76
2023/03/29 10:34:42;;;;;;;;;;;;;;;4.73;67.01;100433.72;4986900;28;5164;-75
2023/03/29 10:37:34;;;;;;;;;;;;;;;4.74;66.89;100444.22;4985208;28;5002;-76
2023/03/29 10:40:26;;;;;;;;;;;;;;;4.73;66.94;100437.22;4987414;28;4930;-77
2023/03/29 10:43:18;;;;;;;;;;;;;;;4.74;67.03;100440.72;4986651;28;5044;-76
2023/03/29 10:46:11;;;;;;;;;;;;;;;4.75;66.88;100443.19;4985319;28;5072;-76
2023/03/29 10:49:08;;;;;;;;;;;;;;;4.75;66.81;100445.03;4986729;28;5201;-77
2023/03/29 10:52:01;;;;;;;;;;;;;;;4.74;66.69;100438.06;4988102;28;4770;-76
2023/03/29 10:54:53;;;;;;;;;;;;;;;4.74;66.91;100448.75;4987820;28;3994;-77
2023/03/29 10:57:44;;;;;;;;;;;;;;;4.76;66.96;100462.69;4979853;28;4976;-75
2023/03/29 11:00:35;;;;;;;;;;;;;;;4.76;66.95;100458.22;4986609;28;4855;-80
2023/03/29 11:03:28;;;;;;;;;;;;;;;4.75;66.85;100459.22;4988482;28;5009;-77
2023/03/29 11:06:19;;;;;;;;;;;;;;;4.73;66.87;100453.22;4986749;28;4145;-75
2023/03/29 11:09:12;;;;;;;;;;;;;;;4.76;66.88;100458.22;4985583;28;4739;-75
2023/03/29 11:12:04;;;;;;;;;;;;;;;4.74;66.74;100452.22;4987520;28;4811;-77
2023/03/29 11:14:56;;;;;;;;;;;;;;;4.77;66.83;100461.72;4987894;28;4732;-77
2023/03/29 11:17:49;;;;;;;;;;;;;;;4.78;66.65;100460.69;4989183;28;4743;-77
2023/03/29 11:20:41;;;;;;;;;;;;;;;4.78;67.07;100461.50;4990648;28;4985;-77
2023/03/29 11:23:33;;;;;;;;;;;;;;;4.78;66.91;100456.16;4990690;28;4909;-77
2023/03/29 11:26:25;;;;;;;;;;;;;;;4.77;66.85;100462.53;4990938;28;4944;-77
2023/03/29 11:29:18;;;;;;;;;;;;;;;4.77;66.87;100459.03;4990325;28;5585;-76
2023/03/29 11:32:10;;;;;;;;;;;;;;;4.76;67.02;100460.88;4990687;28;4952;-77
2023/03/29 11:35:02;;;;;;;;;;;;;;;4.76;66.89;100455.56;4990807;28;4639;-77
2023/03/29 11:37:54;;;;;;;;;;;;;;;4.77;67.04;100465.19;4989286;28;4999;-76
2023/03/29 11:40:46;;;;;;;;;;;;;;;4.78;66.88;100468.69;4990339;28;5329;-77
2023/03/29 11:43:37;;;;;;;;;;;;;;;4.77;67.17;100470.53;4989518;28;5044;-77
2023/03/29 11:46:28;;;;;;;;;;;;;;;4.77;67.06;100473.22;4989079;28;4913;-76
2023/03/29 11:49:21;;;;;;;;;;;;;;;4.77;66.88;100467.88;4990245;28;4638;-75
2023/03/29 11:52:13;;;;;;;;;;;;;;;4.78;66.79;100472.19;4990902;28;4980;-77
2023/03/29 11:55:05;;;;;;;;;;;;;;;4.78;66.94;100460.69;4991680;28;4944;-77
2023/03/29 11:57:57;;;;;;;;;;;;;;;4.78;66.96;100468.69;4991539;28;4657;-77
2023/03/29 12:00:49;;;;;;;;;;;;;;;4.78;66.92;100460.69;4982312;28;4892;-79
2023/03/29 12:03:41;;;;;;;;;;;;;;;4.81;66.99;100459.50;4979082;28;4742;-77
2023/03/29 12:06:33;;;;;;;;;;;;;;;4.76;67.03;100452.88;4978216;28;4346;-78
2023/03/29 12:09:24;;;;;;;;;;;;;;;4.78;67.04;100452.69;4979231;28;4679;-78
2023/03/29 12:12:17;;;;;;;;;;;;;;;4.77;66.98;100448.38;4986092;28;4688;-78
2023/03/29 12:15:09;;;;;;;;;;;;;;;4.77;66.99;100449.19;4982684;28;4713;-77
2023/03/29 12:18:01;;;;;;;;;;;;;;;4.80;66.91;100445.34;4989381;28;5100;-77
2023/03/29 12:20:53;;;;;;;;;;;;;;;4.79;66.93;100451.66;4992490;28;4899;-78
2023/03/29 12:23:45;;;;;;;;;;;;;;;4.80;66.90;100455.19;4990450;28;4987;-77
2023/03/29 12:26:39;;;;;;;;;;;;;;;4.80;66.88;100456.00;4990429;28;4981;-77
2023/03/29 12:29:31;;;;;;;;;;;;;;;4.81;66.70;100454.97;4990902;28;4897;-79
2023/03/29 12:32:22;;;;;;;;;;;;;;;4.82;66.82;100456.63;4990240;28;4888;-77
2023/03/29 12:35:15;;;;;;;;;;;;;;;4.82;66.80;100448.63;4989149;28;4539;-77
2023/03/29 12:38:07;;;;;;;;;;;;;;;4.84;66.79;100453.78;4952551;28;4099;-76
2023/03/29 12:40:58;;;;;;;;;;;;;;;4.81;66.90;100454.16;4948945;28;5179;-78
2023/03/29 12:43:51;;;;;;;;;;;;;;;4.81;67.02;100449.66;4950684;28;4836;-77
2023/03/29 12:46:43;;;;;;;;;;;;;;;4.82;66.75;100453.13;4950087;28;4772;-77
2023/03/29 12:49:35;;;;;;;;;;;;;;;4.80;66.89;100458.66;4951810;29;4901;-78
2023/03/29 12:52:27;;;;;;;;;;;;;;;4.83;66.88;100460.97;4951800;29;4694;-78
2023/03/29 12:55:18;;;;;;;;;;;;;;;4.84;66.91;100465.28;4949423;28;4845;-77
2023/03/29 12:58:11;;;;;;;;;;;;;;;4.82;67.02;100466.47;4950910;29;4911;-77
2023/03/29 13:01:02;;;;;;;;;;;;;;;4.87;66.71;100458.75;4947248;28;5008;-77
2023/03/29 13:03:54;;;;;;;;;;;;;;;4.84;66.80;100454.63;4947535;28;4935;-76
2023/03/29 13:06:46;;;;;;;;;;;;;;;4.85;66.80;100455.44;4949542;29;4790;-76
2023/03/29 13:09:38;;;;;;;;;;;;;;;4.87;66.77;100456.91;4952822;29;4945;-77
2023/03/29 13:12:30;;;;;;;;;;;;;;;4.84;66.99;100443.94;4941560;29;5022;-76
2023/03/29 13:15:21;;;;;;;;;;;;;;;4.86;66.78;100452.59;4936976;28;4338;-79
2023/03/29 13:18:14;;;;;;;;;;;;;;;4.86;67.09;100454.44;4938094;28;4671;-76
2023/03/29 13:21:05;;;;;;;;;;;;;;;4.87;66.83;100453.41;4939382;28;4715;-75
2023/03/29 13:23:57;;;;;;;;;;;;;;;4.84;66.73;100438.59;4945905;29;4986;-77
2023/03/29 13:26:49;;;;;;;;;;;;;;;4.86;66.95;100454.44;4950211;28;5040;-77
2023/03/29 13:29:42;;;;;;;;;;;;;;;4.85;66.99;100450.09;4949027;28;4945;-77
2023/03/29 13:32:33;;;;;;;;;;;;;;;4.85;66.92;100445.59;4951574;28;4714;-76
2023/03/29 13:35:26;;;;;;;;;;;;;;;4.88;66.80;100444.38;4952043;28;5133;-76
2023/03/29 13:38:18;;;;;;;;;;;;;;;4.88;66.91;100431.03;4969937;28;4902;-76
2023/03/29 13:41:09;;;;;;;;;;;;;;;4.85;67.06;100437.56;4963727;28;4753;-79
2023/03/29 13:44:02;;;;;;;;;;;;;;;4.87;66.92;100440.91;4968697;28;4816;-78
2023/03/29 13:46:54;;;;;;;;;;;;;;;4.87;66.62;100440.91;4967199;28;4795;-78
2023/03/29 13:49:46;;;;;;;;;;;;;;;4.87;66.90;100432.88;4967774;28;5079;-77
2023/03/29 13:52:38;;;;;;;;;;;;;;;4.85;67.00;100428.75;4968762;28;4915;-76
2023/03/29 13:55:31;;;;;;;;;;;;;;;4.87;66.93;100438.22;4960445;28;4680;-79
2023/03/29 13:58:22;;;;;;;;;;;;;;;4.87;66.36;100432.88;4963097;28;4768;-79
2023/03/29 14:01:13;;;;;;;;;;;;;;;4.88;66.85;100428.38;4965772;28;4860;-78
2023/03/29 14:04:06;;;;;;;;;;;;;;;4.90;66.63;100429.03;4972159;28;4562;-78
2023/03/29 14:06:58;;;;;;;;;;;;;;;4.90;66.83;100431.69;4969308;28;4984;-78
2023/03/29 14:09:50;;;;;;;;;;;;;;;4.87;66.90;100419.53;4962818;28;4573;-79
2023/03/29 14:12:42;;;;;;;;;;;;;;;4.88;67.09;100423.88;4967037;28;4754;-78
2023/03/29 14:15:34;;;;;;;;;;;;;;;4.89;66.85;100424.72;4967038;28;4737;-77
2023/03/29 14:18:26;;;;;;;;;;;;;;;4.89;66.93;100422.03;4968944;28;5076;-78
2023/03/29 14:21:18;;;;;;;;;;;;;;;4.88;66.87;100420.38;4966694;28;4910;-78
2023/03/29 14:24:11;;;;;;;;;;;;;;;4.87;66.98;100424.88;4969798;28;4822;-78
2023/03/29 14:27:02;;;;;;;;;;;;;;;4.89;66.97;100416.72;4969364;28;4986;-76
2023/03/29 14:29:54;;;;;;;;;;;;;;;4.88;66.83;100415.03;4969747;28;4876;-78
2023/03/29 14:32:46;;;;;;;;;;;;;;;4.91;66.81;100425.34;4970438;28;4933;-77
2023/03/29 14:35:39;;;;;;;;;;;;;;;4.91;66.88;100418.19;4964711;28;5004;-77
2023/03/29 14:38:30;;;;;;;;;;;;;;;4.91;66.70;100428.84;4968945;28;5519;-77
2023/03/29 14:41:22;;;;;;;;;;;;;;;4.88;66.94;100426.56;4969588;28;4913;-76
2023/03/29 14:44:13;;;;;;;;;;;;;;;4.91;66.83;100425.34;4967895;28;4766;-76
2023/03/29 14:47:04;;;;;;;;;;;;;;;4.89;67.05;100422.03;4970472;28;4990;-78
2023/03/29 14:49:59;;;;;;;;;;;;;;;4.87;66.92;100424.88;4970347;28;4955;-77
2023/03/29 14:52:50;;;;;;;;;;;;;;;4.88;66.94;100423.03;4970210;28;4773;-78
2023/03/29 14:55:43;;;;;;;;;;;;;;;4.89;66.98;100424.72;4972296;28;4847;-77
2023/03/29 14:58:34;;;;;;;;;;;;;;;4.88;67.20;100423.88;4972117;28;4885;-78
2023/03/29 15:01:26;;;;;;;;;;;;;;;4.88;66.90;100433.72;4974710;28;4833;-76
2023/03/29 15:04:18;;;;;;;;;;;;;;;4.88;66.97;100423.03;4973176;28;4909;-76
2023/03/29 15:07:10;;;;;;;;;;;;;;;4.87;67.03;100424.88;4961512;28;4765;-76